Oakdale, NY (11769)

12:32 AM EDT on August 28, 2014 (GMT -0400)
KNYSAYVI4 | Change Station
CLOSE
Current Station
Personal Weather Station
Location: Sayville, NY
Elevation: 36 ft
Nearby Weather Stations
Active Advisory: High Surf Advisory

Elev 36 ft 40.75 °N, 73.10 °W | Updated 15 seconds ago

Mostly Cloudy
Mostly Cloudy
71.2 °F
Feels Like 71.2 °F
N
0.0
Wind Variable Wind from West
Gusts 0.0 mph

Today
High -- | Low -- °F
--% Chance of Precip.
Yesterday
High -- | Low -- °F
Precip. -- in
6:15 AM 7:31 PM
Waxing Crescent, 6% visible
Pressure 29.86 in
Visibility 10.0 miles
Clouds Few 5000 ft
Mostly Cloudy 25000 ft
Dew Point 69 °F
Humidity 93%
Rainfall 0.00 in
Snow Depth Not available.
UV 0 out of 12
Pollen 8.90 out of 12
Ozone Good
Flu Activity Not available.
METAR KISP 280356Z 00000KT 10SM FEW050 BKN250 23/19 A2986 RMK AO2 SLP109 LAST AUGMENTED OBSERVATION UNTIL 1000Z T02280194

More Conditions Fewer Conditions

Pressure 29.86 in
Visibility 10.0 miles
Clouds Few 5000 ft
Mostly Cloudy 25000 ft
Dew Point 69 °F
Humidity 93%
Rainfall 0.00 in
Snow Depth Not available.
UV 0 out of 12
Pollen 8.90 out of 12
Ozone Good
Flu Activity Not available.
METAR KISP 280356Z 00000KT 10SM FEW050 BKN250 23/19 A2986 RMK AO2 SLP109 LAST AUGMENTED OBSERVATION UNTIL 1000Z T02280194

More Conditions Fewer Conditions

10-Day Weather Forecast

Almanac

Astronomy

Aug. 28, 2014 Rise Set
Actual Time 6:15 AM EDT 7:31 PM EDT
Civil Twilight 5:47 AM EDT 7:59 PM EDT
Nautical Twilight 5:13 AM EDT 8:33 PM EDT
Astronomical Twilight 4:37 AM EDT 9:08 PM EDT
Moon 9:06 AM EDT 8:52 PM EDT
Length of Visible Light 14h 12m
Length of Day
13h 15m
Tomorrow will be 2m 34s shorter.
Waxing Crescent, 6% of the Moon is Illuminated
Today
Waxing Crescent
Sep 2
First Quarter
Sep 8
Full
Sep 15
Last Quarter
Sep 24
New

Yesterday's Extremes

State Highs State Lows

Community

WunderPhotos

Upload Photos

1,747,907 photos uploaded!

Nearby

Air Quality

  Air Quality AQ Index Pollutant
Yesterday Good
OZONE
Current Good
OZONE
Wednesday Moderate
PM2.5
Wednesday Moderate
OZONE
Thursday Good
OZONE
Thursday Good
PM2.5

Snow Depth

Station Depth Elevation
No new snow has been reported.

Earthquake Activity

City Distance Mag. Time & Date
No recent earthquake activity has been reported nearby.
Minimum magnitude displayed is 2.5.

Coastal Water Temperatures

Place Temperature
No Stations Reporting

Nearby Weather Stations